This is the latest recevied weather packets stored in our database for station/object KT5AL. If no packets are shown the sender has not sent any weather packets the latest 10 day(s).
| Time | Temp. | Humidity | Pressure | Rain* | Wind** | Luminosity | Snow |
|---|---|---|---|---|---|---|---|
| 1777858806 | 21.67° C | 43% | 1014.8 hPa | 0 mm | - | - | - |
| 1777858503 | 21.67° C | 43% | 1014.8 hPa | 0 mm | - | - | - |
| 1777858206 | 21.11° C | 53% | 1014.8 hPa | 0 mm | - | - | - |
| 1777857903 | 22.22° C | 44% | 1014.4 hPa | 0 mm | - | - | - |
| 1777857607 | 22.22° C | 44% | 1014.4 hPa | 0 mm | - | - | - |
| 1777857304 | 22.22° C | 44% | 1014.4 hPa | 0 mm | - | - | - |
| 1777857007 | 22.22° C | 44% | 1014.4 hPa | 0 mm | - | - | - |
| 1777856704 | 22.78° C | 43% | 1013.8 hPa | 0 mm | - | - | - |
| 1777856407 | 22.78° C | 42% | 1013.8 hPa | 0 mm | - | - | - |
| 1777856131 | 23.33° C | 40% | 1013.8 hPa | 0 mm | - | - | - |
| 1777855808 | 23.33° C | 39% | 1013.8 hPa | 0 mm | - | - | - |
| 1777855504 | 23.33° C | 38% | 1013.8 hPa | 0 mm | - | - | - |
| 1777855207 | 23.89° C | 38% | 1013.8 hPa | 0 mm | - | - | - |
| 1777854909 | 23.89° C | 37% | 1013.4 hPa | 0 mm | - | - | - |
| 1777854606 | 24.44° C | 37% | 1013.4 hPa | 0 mm | - | - | - |
| 1777854307 | 24.44° C | 37% | 1013.4 hPa | 0 mm | - | - | - |
| 1777854004 | 25° C | 35% | 1013.4 hPa | 0 mm | - | - | - |
| 1777853707 | 25° C | 35% | 1013.1 hPa | 0 mm | - | - | - |
| 1777853404 | 25° C | 36% | 1013.1 hPa | 0 mm | - | - | - |
| 1777853107 | 25.56° C | 34% | 1013.1 hPa | 0 mm | - | - | - |
| 1777852805 | 25.56° C | 34% | 1013.1 hPa | 0 mm | - | - | - |
| 1777852508 | 25.56° C | 34% | 1013.1 hPa | 0 mm | - | - | - |
| 1777852205 | 25.56° C | 32% | 1013.1 hPa | 0 mm | - | - | - |
| 1777851908 | 25.56° C | 30% | 1013.4 hPa | 0 mm | - | - | - |
| 1777851606 | 25.56° C | 31% | 1013.4 hPa | 0 mm | - | - | - |
* Rain latest hour (hover to see other rain measurements)
** Current wind speed in m/s (hover to see current wind gust speed)